TAF Text Data
IDs:
Format:
Raw Decoded Include METAR

Data at: 1426 UTC 10 Jul 2020

KMKL 101308Z 1013/1112 29006KT P6SM SCT006
  TEMPO 1013/1014 BKN006
  FM101500 32010KT P6SM SCT250
  FM101700 31007KT P6SM FEW030 FEW250
  FM110100 00000KT P6SM SKC